sensor_id;sensor_type;location;lat;lon;timestamp;pressure;altitude;pressure_sealevel;temperature;humidity
63019;BME280;49105;46.046;10.760;2022-07-29T00:01:50;95783.47;;;19.65;75.70
63019;BME280;49105;46.046;10.760;2022-07-29T00:04:20;95785.25;;;19.61;75.74
63019;BME280;49105;46.046;10.760;2022-07-29T00:06:51;95779.69;;;19.66;75.79
63019;BME280;49105;46.046;10.760;2022-07-29T00:09:23;95784.88;;;19.71;75.60
63019;BME280;49105;46.046;10.760;2022-07-29T00:11:56;95784.75;;;19.68;75.58
63019;BME280;49105;46.046;10.760;2022-07-29T00:14:28;95786.81;;;19.62;75.86
63019;BME280;49105;46.046;10.760;2022-07-29T00:16:56;95772.78;;;19.56;75.94
63019;BME280;49105;46.046;10.760;2022-07-29T00:19:28;95775.00;;;19.54;76.06
63019;BME280;49105;46.046;10.760;2022-07-29T00:22:02;95767.28;;;19.53;75.90
63019;BME280;49105;46.046;10.760;2022-07-29T00:24:34;95772.00;;;19.56;75.67
63019;BME280;49105;46.046;10.760;2022-07-29T00:27:08;95770.28;;;19.51;74.80
63019;BME280;49105;46.046;10.760;2022-07-29T00:29:34;95770.06;;;19.36;74.82
63019;BME280;49105;46.046;10.760;2022-07-29T00:32:06;95770.06;;;19.36;75.08
63019;BME280;49105;46.046;10.760;2022-07-29T00:34:38;95772.63;;;19.32;75.52
63019;BME280;49105;46.046;10.760;2022-07-29T00:37:22;95769.06;;;19.19;75.56
63019;BME280;49105;46.046;10.760;2022-07-29T00:39:53;95771.94;;;19.14;75.44
63019;BME280;49105;46.046;10.760;2022-07-29T00:42:25;95771.63;;;19.07;75.47
63019;BME280;49105;46.046;10.760;2022-07-29T00:44:56;95775.44;;;19.06;74.96
63019;BME280;49105;46.046;10.760;2022-07-29T00:47:22;95769.44;;;19.00;74.96
63019;BME280;49105;46.046;10.760;2022-07-29T00:49:54;95774.03;;;19.00;74.88
63019;BME280;49105;46.046;10.760;2022-07-29T00:52:28;95761.25;;;18.97;75.05
63019;BME280;49105;46.046;10.760;2022-07-29T00:55:00;95773.78;;;18.93;74.90
63019;BME280;49105;46.046;10.760;2022-07-29T00:57:27;95774.72;;;18.88;75.33
63019;BME280;49105;46.046;10.760;2022-07-29T00:59:52;95782.16;;;18.82;75.35
63019;BME280;49105;46.046;10.760;2022-07-29T01:02:24;95781.06;;;18.75;75.40
63019;BME280;49105;46.046;10.760;2022-07-29T01:04:56;95782.50;;;18.81;75.66
63019;BME280;49105;46.046;10.760;2022-07-29T01:07:29;95792.25;;;18.86;75.40
63019;BME280;49105;46.046;10.760;2022-07-29T01:10:03;95783.72;;;18.83;75.90
63019;BME280;49105;46.046;10.760;2022-07-29T01:12:37;95796.50;;;18.87;76.09
63019;BME280;49105;46.046;10.760;2022-07-29T01:15:12;95796.00;;;18.93;76.07
63019;BME280;49105;46.046;10.760;2022-07-29T01:17:48;95795.19;;;19.01;75.71
63019;BME280;49105;46.046;10.760;2022-07-29T01:26:34;95793.19;;;18.90;75.85
63019;BME280;49105;46.046;10.760;2022-07-29T01:31:57;95790.69;;;18.84;75.64
63019;BME280;49105;46.046;10.760;2022-07-29T01:37:52;95799.38;;;18.64;75.55
63019;BME280;49105;46.046;10.760;2022-07-29T01:40:42;95801.13;;;18.51;75.08
63019;BME280;49105;46.046;10.760;2022-07-29T01:43:14;95798.16;;;18.53;75.46
63019;BME280;49105;46.046;10.760;2022-07-29T01:46:09;95797.50;;;18.47;75.34
63019;BME280;49105;46.046;10.760;2022-07-29T01:48:57;95797.38;;;18.52;75.46
63019;BME280;49105;46.046;10.760;2022-07-29T01:51:47;95794.03;;;18.47;75.30
63019;BME280;49105;46.046;10.760;2022-07-29T01:54:19;95797.22;;;18.40;75.63
63019;BME280;49105;46.046;10.760;2022-07-29T01:56:51;95798.00;;;18.41;76.22
63019;BME280;49105;46.046;10.760;2022-07-29T01:59:20;95795.78;;;18.43;76.06
63019;BME280;49105;46.046;10.760;2022-07-29T02:01:53;95794.22;;;18.42;76.20
63019;BME280;49105;46.046;10.760;2022-07-29T02:04:21;95793.59;;;18.45;76.38
63019;BME280;49105;46.046;10.760;2022-07-29T02:06:50;95794.53;;;18.49;75.73
63019;BME280;49105;46.046;10.760;2022-07-29T02:09:19;95794.53;;;18.49;75.68
63019;BME280;49105;46.046;10.760;2022-07-29T02:11:54;95784.09;;;18.47;75.66
63019;BME280;49105;46.046;10.760;2022-07-29T02:14:22;95790.75;;;18.50;75.49
63019;BME280;49105;46.046;10.760;2022-07-29T02:16:55;95798.78;;;18.50;75.79
63019;BME280;49105;46.046;10.760;2022-07-29T02:19:31;95801.63;;;18.53;75.94
63019;BME280;49105;46.046;10.760;2022-07-29T02:22:05;95806.50;;;18.60;75.94
63019;BME280;49105;46.046;10.760;2022-07-29T02:24:38;95795.28;;;18.58;75.46
63019;BME280;49105;46.046;10.760;2022-07-29T02:27:15;95804.63;;;18.52;75.22
63019;BME280;49105;46.046;10.760;2022-07-29T02:29:51;95797.66;;;18.51;75.09
63019;BME280;49105;46.046;10.760;2022-07-29T02:32:26;95795.28;;;18.58;75.29
63019;BME280;49105;46.046;10.760;2022-07-29T02:34:58;95797.53;;;18.39;75.24
63019;BME280;49105;46.046;10.760;2022-07-29T02:37:30;95796.78;;;18.12;76.02
63019;BME280;49105;46.046;10.760;2022-07-29T02:40:11;95795.22;;;18.02;76.17
63019;BME280;49105;46.046;10.760;2022-07-29T02:42:45;95791.13;;;18.05;76.30
63019;BME280;49105;46.046;10.760;2022-07-29T02:45:20;95797.91;;;18.11;76.49
63019;BME280;49105;46.046;10.760;2022-07-29T02:47:57;95802.59;;;18.14;76.08
63019;BME280;49105;46.046;10.760;2022-07-29T02:50:33;95802.94;;;18.13;76.25
63019;BME280;49105;46.046;10.760;2022-07-29T02:53:13;95802.91;;;18.21;76.42
63019;BME280;49105;46.046;10.760;2022-07-29T02:55:51;95809.38;;;18.38;76.24
63019;BME280;49105;46.046;10.760;2022-07-29T02:58:34;95810.16;;;18.38;75.61
63019;BME280;49105;46.046;10.760;2022-07-29T03:01:09;95808.56;;;18.37;75.63
63019;BME280;49105;46.046;10.760;2022-07-29T03:03:44;95817.72;;;18.36;75.50
63019;BME280;49105;46.046;10.760;2022-07-29T03:06:13;95813.16;;;18.37;75.04
63019;BME280;49105;46.046;10.760;2022-07-29T03:12:01;95811.88;;;18.43;75.12
63019;BME280;49105;46.046;10.760;2022-07-29T03:14:28;95810.31;;;18.33;75.66
63019;BME280;49105;46.046;10.760;2022-07-29T03:16:54;95813.47;;;18.26;75.72
63019;BME280;49105;46.046;10.760;2022-07-29T03:19:20;95811.91;;;18.17;75.99
63019;BME280;49105;46.046;10.760;2022-07-29T03:21:46;95812.84;;;18.12;76.16
63019;BME280;49105;46.046;10.760;2022-07-29T03:24:32;95803.41;;;18.06;75.17
63019;BME280;49105;46.046;10.760;2022-07-29T03:26:59;95804.84;;;18.03;75.58
63019;BME280;49105;46.046;10.760;2022-07-29T03:29:32;95810.03;;;18.00;75.57
63019;BME280;49105;46.046;10.760;2022-07-29T03:32:08;95815.72;;;18.07;75.98
63019;BME280;49105;46.046;10.760;2022-07-29T03:34:38;95817.13;;;18.04;76.11
63019;BME280;49105;46.046;10.760;2022-07-29T03:37:09;95824.97;;;18.09;75.73
63019;BME280;49105;46.046;10.760;2022-07-29T03:39:41;95814.59;;;18.08;75.65
63019;BME280;49105;46.046;10.760;2022-07-29T03:42:15;95812.38;;;18.10;75.45
63019;BME280;49105;46.046;10.760;2022-07-29T03:45:05;95812.84;;;18.12;75.57
63019;BME280;49105;46.046;10.760;2022-07-29T03:47:51;95801.38;;;18.12;75.18
63019;BME280;49105;46.046;10.760;2022-07-29T03:50:37;95811.44;;;18.06;75.39
63019;BME280;49105;46.046;10.760;2022-07-29T03:53:03;95812.53;;;18.05;75.52
63019;BME280;49105;46.046;10.760;2022-07-29T03:55:41;95809.41;;;18.03;75.46
63019;BME280;49105;46.046;10.760;2022-07-29T03:58:07;95803.25;;;18.02;75.84
63019;BME280;49105;46.046;10.760;2022-07-29T04:00:40;95798.69;;;18.03;75.08
63019;BME280;49105;46.046;10.760;2022-07-29T04:03:10;95801.38;;;18.03;75.41
63019;BME280;49105;46.046;10.760;2022-07-29T04:05:45;95806.88;;;18.06;74.59
63019;BME280;49105;46.046;10.760;2022-07-29T04:08:22;95803.09;;;17.99;74.61
63019;BME280;49105;46.046;10.760;2022-07-29T04:11:01;95800.56;;;17.94;74.56
63019;BME280;49105;46.046;10.760;2022-07-29T04:13:35;95800.56;;;17.94;74.41
63019;BME280;49105;46.046;10.760;2022-07-29T04:16:06;95803.72;;;17.87;74.17
63019;BME280;49105;46.046;10.760;2022-07-29T04:18:34;95805.28;;;17.79;74.57
63019;BME280;49105;46.046;10.760;2022-07-29T04:21:09;95801.03;;;17.78;74.48
63019;BME280;49105;46.046;10.760;2022-07-29T04:23:41;95802.63;;;17.79;74.86
63019;BME280;49105;46.046;10.760;2022-07-29T04:26:10;95799.31;;;17.82;74.58
63019;BME280;49105;46.046;10.760;2022-07-29T04:28:42;95812.38;;;17.84;74.65
63019;BME280;49105;46.046;10.760;2022-07-29T04:31:09;95807.66;;;17.81;73.95
63019;BME280;49105;46.046;10.760;2022-07-29T04:33:34;95805.28;;;17.79;74.25
63019;BME280;49105;46.046;10.760;2022-07-29T04:36:09;95803.72;;;17.78;74.22
63019;BME280;49105;46.046;10.760;2022-07-29T04:38:37;95806.25;;;17.75;74.38
63019;BME280;49105;46.046;10.760;2022-07-29T04:41:13;95799.00;;;17.75;74.25
63019;BME280;49105;46.046;10.760;2022-07-29T04:46:58;95796.94;;;17.81;73.94
63019;BME280;49105;46.046;10.760;2022-07-29T04:49:33;95804.34;;;17.75;74.09
63019;BME280;49105;46.046;10.760;2022-07-29T04:52:05;95795.34;;;17.71;74.23
63019;BME280;49105;46.046;10.760;2022-07-29T04:54:40;95800.25;;;17.78;73.94
63019;BME280;49105;46.046;10.760;2022-07-29T04:57:15;95808.44;;;17.81;74.11
63019;BME280;49105;46.046;10.760;2022-07-29T04:59:45;95809.69;;;17.93;73.48
63019;BME280;49105;46.046;10.760;2022-07-29T05:02:13;95801.22;;;17.99;73.57
63019;BME280;49105;46.046;10.760;2022-07-29T05:04:45;95802.47;;;18.10;73.57
63019;BME280;49105;46.046;10.760;2022-07-29T05:07:16;95805.31;;;18.23;73.11
63019;BME280;49105;46.046;10.760;2022-07-29T05:09:48;95804.97;;;18.33;73.25
63019;BME280;49105;46.046;10.760;2022-07-29T05:12:20;95817.22;;;18.43;72.76
63019;BME280;49105;46.046;10.760;2022-07-29T05:14:55;95807.94;;;18.49;72.75
63019;BME280;49105;46.046;10.760;2022-07-29T05:17:27;95807.13;;;18.57;72.45
63019;BME280;49105;46.046;10.760;2022-07-29T05:19:52;95818.16;;;18.64;72.34
63019;BME280;49105;46.046;10.760;2022-07-29T05:22:24;95825.53;;;18.76;72.27
63019;BME280;49105;46.046;10.760;2022-07-29T05:24:58;95818.69;;;18.96;71.91
63019;BME280;49105;46.046;10.760;2022-07-29T05:27:34;95814.56;;;19.07;71.63
63019;BME280;49105;46.046;10.760;2022-07-29T05:30:12;95817.34;;;19.19;71.33
63019;BME280;49105;46.046;10.760;2022-07-29T05:32:43;95809.13;;;19.24;71.04
63019;BME280;49105;46.046;10.760;2022-07-29T05:35:09;95816.19;;;19.29;70.97
63019;BME280;49105;46.046;10.760;2022-07-29T05:37:35;95809.72;;;19.30;71.26
63019;BME280;49105;46.046;10.760;2022-07-29T05:40:02;95817.75;;;19.39;71.10
63019;BME280;49105;46.046;10.760;2022-07-29T05:42:27;95813.75;;;19.45;70.81
63019;BME280;49105;46.046;10.760;2022-07-29T05:44:57;95812.47;;;19.51;70.81
63019;BME280;49105;46.046;10.760;2022-07-29T05:47:32;95810.34;;;19.65;70.36
63019;BME280;49105;46.046;10.760;2022-07-29T05:50:07;95806.81;;;19.73;70.41
63019;BME280;49105;46.046;10.760;2022-07-29T05:52:43;95806.88;;;19.86;70.34
63019;BME280;49105;46.046;10.760;2022-07-29T05:55:15;95796.19;;;19.98;69.65
63019;BME280;49105;46.046;10.760;2022-07-29T05:57:52;95811.47;;;20.06;69.36
63019;BME280;49105;46.046;10.760;2022-07-29T06:00:17;95810.81;;;20.09;69.39
63019;BME280;49105;46.046;10.760;2022-07-29T06:02:55;95808.25;;;20.13;69.39
63019;BME280;49105;46.046;10.760;2022-07-29T06:05:24;95802.81;;;20.21;69.60
63019;BME280;49105;46.046;10.760;2022-07-29T06:07:59;95817.19;;;20.38;69.17
63019;BME280;49105;46.046;10.760;2022-07-29T06:10:25;95811.16;;;20.41;68.95
63019;BME280;49105;46.046;10.760;2022-07-29T06:12:57;95802.25;;;20.49;68.81
63019;BME280;49105;46.046;10.760;2022-07-29T06:15:29;95797.25;;;20.39;68.67
63019;BME280;49105;46.046;10.760;2022-07-29T06:21:16;95797.00;;;20.52;68.33
63019;BME280;49105;46.046;10.760;2022-07-29T06:23:42;95802.75;;;20.63;68.06
63019;BME280;49105;46.046;10.760;2022-07-29T06:26:13;95807.66;;;20.61;68.10
63019;BME280;49105;46.046;10.760;2022-07-29T06:28:45;95806.69;;;20.66;68.01
63019;BME280;49105;46.046;10.760;2022-07-29T06:31:16;95807.81;;;20.77;67.86
63019;BME280;49105;46.046;10.760;2022-07-29T06:33:45;95808.41;;;20.83;67.49
63019;BME280;49105;46.046;10.760;2022-07-29T06:36:19;95798.06;;;20.85;67.45
63019;BME280;49105;46.046;10.760;2022-07-29T06:38:48;95796.84;;;20.82;67.35
63019;BME280;49105;46.046;10.760;2022-07-29T06:41:20;95798.63;;;20.78;67.47
63019;BME280;49105;46.046;10.760;2022-07-29T06:43:45;95805.34;;;20.84;67.41
63019;BME280;49105;46.046;10.760;2022-07-29T06:46:13;95798.19;;;20.88;67.26
63019;BME280;49105;46.046;10.760;2022-07-29T06:48:40;95807.50;;;20.91;67.18
63019;BME280;49105;46.046;10.760;2022-07-29T06:51:15;95805.72;;;20.83;67.15
63019;BME280;49105;46.046;10.760;2022-07-29T06:53:47;95804.09;;;20.81;67.20
63019;BME280;49105;46.046;10.760;2022-07-29T06:56:13;95797.84;;;20.90;67.05
63019;BME280;49105;46.046;10.760;2022-07-29T06:58:45;95801.44;;;20.94;66.75
63019;BME280;49105;46.046;10.760;2022-07-29T07:01:11;95801.00;;;20.79;66.76
63019;BME280;49105;46.046;10.760;2022-07-29T07:03:40;95797.16;;;20.80;66.87
63019;BME280;49105;46.046;10.760;2022-07-29T07:06:09;95794.63;;;20.96;66.66
63019;BME280;49105;46.046;10.760;2022-07-29T07:08:44;95796.19;;;21.10;66.29
63019;BME280;49105;46.046;10.760;2022-07-29T07:11:15;95793.06;;;21.08;66.09
63019;BME280;49105;46.046;10.760;2022-07-29T07:13:50;95798.34;;;21.16;66.01
63019;BME280;49105;46.046;10.760;2022-07-29T07:16:24;95787.00;;;21.23;65.59
63019;BME280;49105;46.046;10.760;2022-07-29T07:19:00;95780.53;;;21.36;65.59
63019;BME280;49105;46.046;10.760;2022-07-29T07:21:29;95781.97;;;21.58;65.31
63019;BME280;49105;46.046;10.760;2022-07-29T07:24:07;95786.41;;;21.78;64.87
63019;BME280;49105;46.046;10.760;2022-07-29T07:26:38;95782.22;;;21.93;64.63
63019;BME280;49105;46.046;10.760;2022-07-29T07:29:08;95778.59;;;22.14;64.31
63019;BME280;49105;46.046;10.760;2022-07-29T07:31:37;95778.88;;;22.12;63.56
63019;BME280;49105;46.046;10.760;2022-07-29T07:34:09;95772.38;;;22.13;63.62
63019;BME280;49105;46.046;10.760;2022-07-29T07:36:41;95768.72;;;22.34;63.49
63019;BME280;49105;46.046;10.760;2022-07-29T07:39:12;95764.84;;;22.47;63.15
63019;BME280;49105;46.046;10.760;2022-07-29T07:41:44;95767.97;;;22.49;62.75
63019;BME280;49105;46.046;10.760;2022-07-29T07:44:15;95756.75;;;22.47;62.43
63019;BME280;49105;46.046;10.760;2022-07-29T07:46:51;95756.66;;;22.43;61.99
63019;BME280;49105;46.046;10.760;2022-07-29T07:49:20;95756.19;;;22.41;61.71
63019;BME280;49105;46.046;10.760;2022-07-29T07:55:08;95753.25;;;22.31;61.39
63019;BME280;49105;46.046;10.760;2022-07-29T07:57:34;95746.09;;;22.38;61.52
63019;BME280;49105;46.046;10.760;2022-07-29T08:00:00;95739.75;;;22.46;61.36
63019;BME280;49105;46.046;10.760;2022-07-29T08:02:25;95741.44;;;22.51;61.49
63019;BME280;49105;46.046;10.760;2022-07-29T08:04:51;95727.00;;;22.59;61.52
63019;BME280;49105;46.046;10.760;2022-07-29T08:07:25;95725.69;;;22.69;61.47
63019;BME280;49105;46.046;10.760;2022-07-29T08:10:00;95732.84;;;22.77;61.09
63019;BME280;49105;46.046;10.760;2022-07-29T08:12:32;95725.53;;;22.77;60.82
63019;BME280;49105;46.046;10.760;2022-07-29T08:15:02;95720.47;;;22.76;60.48
63019;BME280;49105;46.046;10.760;2022-07-29T08:17:34;95729.19;;;22.85;60.58
63019;BME280;49105;46.046;10.760;2022-07-29T08:20:11;95719.84;;;22.83;60.23
63019;BME280;49105;46.046;10.760;2022-07-29T08:22:43;95710.91;;;22.94;60.04
63019;BME280;49105;46.046;10.760;2022-07-29T08:25:18;95715.44;;;23.06;59.86
63019;BME280;49105;46.046;10.760;2022-07-29T08:27:46;95715.06;;;23.08;59.88
63019;BME280;49105;46.046;10.760;2022-07-29T08:30:24;95705.91;;;23.12;59.87
63019;BME280;49105;46.046;10.760;2022-07-29T08:32:56;95708.28;;;23.14;59.91
63019;BME280;49105;46.046;10.760;2022-07-29T08:35:28;95701.47;;;23.20;59.90
63019;BME280;49105;46.046;10.760;2022-07-29T08:38:00;95696.72;;;23.33;59.83
63019;BME280;49105;46.046;10.760;2022-07-29T08:40:35;95696.03;;;23.36;59.66
63019;BME280;49105;46.046;10.760;2022-07-29T08:43:09;95691.59;;;23.27;59.36
63019;BME280;49105;46.046;10.760;2022-07-29T08:45:49;95693.38;;;23.20;59.36
63019;BME280;49105;46.046;10.760;2022-07-29T08:48:20;95687.56;;;23.18;59.65
63019;BME280;49105;46.046;10.760;2022-07-29T08:50:54;95681.38;;;23.17;59.67
63019;BME280;49105;46.046;10.760;2022-07-29T08:53:26;95683.31;;;23.36;59.85
63019;BME280;49105;46.046;10.760;2022-07-29T08:56:01;95684.91;;;23.57;59.64
63019;BME280;49105;46.046;10.760;2022-07-29T08:58:33;95678.19;;;23.66;59.41
63019;BME280;49105;46.046;10.760;2022-07-29T09:01:02;95669.97;;;23.82;59.24
63019;BME280;49105;46.046;10.760;2022-07-29T09:03:32;95674.59;;;24.01;58.96
63019;BME280;49105;46.046;10.760;2022-07-29T09:06:13;95669.97;;;24.44;58.20
63019;BME280;49105;46.046;10.760;2022-07-29T09:08:40;95668.09;;;24.71;57.08
63019;BME280;49105;46.046;10.760;2022-07-29T09:11:06;95675.66;;;24.85;56.88
63019;BME280;49105;46.046;10.760;2022-07-29T09:13:33;95669.72;;;24.75;56.53
63019;BME280;49105;46.046;10.760;2022-07-29T09:16:04;95660.78;;;24.71;56.35
63019;BME280;49105;46.046;10.760;2022-07-29T09:18:38;95661.97;;;24.74;56.57
63019;BME280;49105;46.046;10.760;2022-07-29T09:21:16;95660.19;;;24.85;56.56
63019;BME280;49105;46.046;10.760;2022-07-29T09:24:13;95660.06;;;25.01;56.65
63019;BME280;49105;46.046;10.760;2022-07-29T09:32:54;95639.78;;;25.14;55.02
63019;BME280;49105;46.046;10.760;2022-07-29T09:35:25;95631.66;;;25.14;54.33
63019;BME280;49105;46.046;10.760;2022-07-29T09:37:58;95615.09;;;25.19;53.86
63019;BME280;49105;46.046;10.760;2022-07-29T09:40:35;95620.59;;;25.27;53.27
63019;BME280;49105;46.046;10.760;2022-07-29T09:43:20;95610.25;;;25.36;52.42
63019;BME280;49105;46.046;10.760;2022-07-29T09:45:55;95611.91;;;25.44;52.72
63019;BME280;49105;46.046;10.760;2022-07-29T09:48:24;95599.53;;;25.46;51.22
63019;BME280;49105;46.046;10.760;2022-07-29T09:50:59;95597.22;;;25.45;50.47
63019;BME280;49105;46.046;10.760;2022-07-29T09:53:37;95594.94;;;25.47;50.06
63019;BME280;49105;46.046;10.760;2022-07-29T09:56:06;95590.69;;;25.49;50.17
63019;BME280;49105;46.046;10.760;2022-07-29T09:58:34;95595.00;;;25.54;49.66
63019;BME280;49105;46.046;10.760;2022-07-29T10:01:06;95588.78;;;25.54;49.03
63019;BME280;49105;46.046;10.760;2022-07-29T10:03:51;95590.38;;;25.58;49.22
63019;BME280;49105;46.046;10.760;2022-07-29T10:06:20;95586.59;;;25.66;49.59
63019;BME280;49105;46.046;10.760;2022-07-29T10:08:51;95576.97;;;25.69;48.68
63019;BME280;49105;46.046;10.760;2022-07-29T10:11:20;95575.91;;;25.77;49.07
63019;BME280;49105;46.046;10.760;2022-07-29T10:13:52;95570.97;;;25.86;48.83
63019;BME280;49105;46.046;10.760;2022-07-29T10:16:18;95569.81;;;25.87;48.81
63019;BME280;49105;46.046;10.760;2022-07-29T10:18:44;95565.97;;;25.92;48.87
63019;BME280;49105;46.046;10.760;2022-07-29T10:21:12;95560.63;;;25.99;47.96
63019;BME280;49105;46.046;10.760;2022-07-29T10:23:45;95560.75;;;26.13;48.08
63019;BME280;49105;46.046;10.760;2022-07-29T10:26:11;95556.16;;;26.21;47.97
63019;BME280;49105;46.046;10.760;2022-07-29T10:28:37;95556.59;;;26.27;47.70
63019;BME280;49105;46.046;10.760;2022-07-29T10:31:09;95547.75;;;26.37;48.03
63019;BME280;49105;46.046;10.760;2022-07-29T10:36:52;95544.06;;;26.59;47.70
63019;BME280;49105;46.046;10.760;2022-07-29T10:42:24;95523.97;;;26.67;47.22
63019;BME280;49105;46.046;10.760;2022-07-29T10:44:57;95522.44;;;26.73;47.36
63019;BME280;49105;46.046;10.760;2022-07-29T10:47:27;95522.88;;;26.83;47.37
63019;BME280;49105;46.046;10.760;2022-07-29T10:50:01;95517.06;;;26.81;47.36
63019;BME280;49105;46.046;10.760;2022-07-29T10:55:45;95520.00;;;26.54;47.27
63019;BME280;49105;46.046;10.760;2022-07-29T10:58:17;95512.19;;;26.45;47.46
63019;BME280;49105;46.046;10.760;2022-07-29T11:04:05;95512.09;;;26.35;48.04
63019;BME280;49105;46.046;10.760;2022-07-29T11:09:30;95538.41;;;26.31;48.75
63019;BME280;49105;46.046;10.760;2022-07-29T11:15:08;95530.94;;;26.13;49.85
63019;BME280;49105;46.046;10.760;2022-07-29T11:20:48;95538.50;;;25.93;50.75
63019;BME280;49105;46.046;10.760;2022-07-29T11:29:16;95582.16;;;25.47;52.12
63019;BME280;49105;46.046;10.760;2022-07-29T11:31:44;95582.88;;;25.11;52.84
63019;BME280;49105;46.046;10.760;2022-07-29T11:34:22;95581.84;;;24.96;53.29
63019;BME280;49105;46.046;10.760;2022-07-29T11:42:37;95590.13;;;24.80;55.84
63019;BME280;49105;46.046;10.760;2022-07-29T11:45:20;95602.22;;;24.86;56.42
63019;BME280;49105;46.046;10.760;2022-07-29T11:50:14;95597.38;;;24.99;57.91
63019;BME280;49105;46.046;10.760;2022-07-29T11:52:47;95600.19;;;25.06;58.28
63019;BME280;49105;46.046;10.760;2022-07-29T11:55:19;95603.66;;;25.07;58.50
63019;BME280;49105;46.046;10.760;2022-07-29T11:57:46;95607.84;;;25.27;58.68
63019;BME280;49105;46.046;10.760;2022-07-29T12:02:55;95602.34;;;25.87;58.36
63019;BME280;49105;46.046;10.760;2022-07-29T12:05:40;95585.91;;;26.10;57.90
63019;BME280;49105;46.046;10.760;2022-07-29T12:08:12;95579.75;;;26.13;58.00
63019;BME280;49105;46.046;10.760;2022-07-29T12:10:38;95578.16;;;26.09;57.60
63019;BME280;49105;46.046;10.760;2022-07-29T12:13:15;95577.31;;;26.01;57.29
63019;BME280;49105;46.046;10.760;2022-07-29T12:15:55;95579.91;;;25.90;57.06
63019;BME280;49105;46.046;10.760;2022-07-29T12:18:25;95575.19;;;25.80;57.44
63019;BME280;49105;46.046;10.760;2022-07-29T12:20:59;95563.53;;;25.80;56.71
63019;BME280;49105;46.046;10.760;2022-07-29T12:23:31;95564.69;;;25.79;56.52
63019;BME280;49105;46.046;10.760;2022-07-29T12:26:00;95572.03;;;25.78;56.44
63019;BME280;49105;46.046;10.760;2022-07-29T12:28:37;95568.94;;;25.80;56.13
63019;BME280;49105;46.046;10.760;2022-07-29T12:31:08;95565.88;;;25.81;55.51
63019;BME280;49105;46.046;10.760;2022-07-29T12:37:00;95552.56;;;26.06;54.53
63019;BME280;49105;46.046;10.760;2022-07-29T12:39:26;95557.69;;;26.18;53.63
63019;BME280;49105;46.046;10.760;2022-07-29T12:41:53;95556.22;;;26.28;53.61
63019;BME280;49105;46.046;10.760;2022-07-29T12:44:19;95560.31;;;26.52;53.64
63019;BME280;49105;46.046;10.760;2022-07-29T12:46:45;95553.06;;;26.70;53.48
63019;BME280;49105;46.046;10.760;2022-07-29T12:49:23;95546.09;;;26.73;53.07
63019;BME280;49105;46.046;10.760;2022-07-29T12:51:52;95535.19;;;26.66;53.27
63019;BME280;49105;46.046;10.760;2022-07-29T12:54:29;95544.06;;;26.56;53.05
63019;BME280;49105;46.046;10.760;2022-07-29T12:57:07;95545.91;;;26.44;53.12
63019;BME280;49105;46.046;10.760;2022-07-29T12:59:38;95562.41;;;26.29;53.19
63019;BME280;49105;46.046;10.760;2022-07-29T13:02:22;95562.00;;;26.23;53.60
63019;BME280;49105;46.046;10.760;2022-07-29T13:04:59;95564.69;;;26.19;53.30
63019;BME280;49105;46.046;10.760;2022-07-29T13:07:35;95568.56;;;26.18;53.64
63019;BME280;49105;46.046;10.760;2022-07-29T13:10:19;95563.09;;;26.15;53.68
63019;BME280;49105;46.046;10.760;2022-07-29T13:13:14;95568.41;;;26.01;53.50
63019;BME280;49105;46.046;10.760;2022-07-29T13:15:43;95566.41;;;25.94;53.78
63019;BME280;49105;46.046;10.760;2022-07-29T13:18:33;95559.81;;;25.95;53.96
63019;BME280;49105;46.046;10.760;2022-07-29T13:21:11;95563.94;;;25.82;53.63
63019;BME280;49105;46.046;10.760;2022-07-29T13:23:55;95561.13;;;25.74;54.02
63019;BME280;49105;46.046;10.760;2022-07-29T13:26:30;95556.09;;;25.73;54.32
63019;BME280;49105;46.046;10.760;2022-07-29T13:29:02;95556.09;;;25.73;54.60
63019;BME280;49105;46.046;10.760;2022-07-29T13:31:33;95557.75;;;25.81;54.09
63019;BME280;49105;46.046;10.760;2022-07-29T13:34:00;95558.22;;;25.90;54.35
63019;BME280;49105;46.046;10.760;2022-07-29T13:39:47;95539.09;;;26.20;54.09
63019;BME280;49105;46.046;10.760;2022-07-29T13:42:12;95522.63;;;26.43;53.40
63019;BME280;49105;46.046;10.760;2022-07-29T13:44:47;95505.34;;;26.62;53.03
63019;BME280;49105;46.046;10.760;2022-07-29T13:47:19;95489.84;;;26.70;52.93
63019;BME280;49105;46.046;10.760;2022-07-29T13:49:57;95489.03;;;26.62;52.91
63019;BME280;49105;46.046;10.760;2022-07-29T13:52:23;95481.59;;;26.52;52.95
63019;BME280;49105;46.046;10.760;2022-07-29T13:54:58;95483.34;;;26.27;53.05
63019;BME280;49105;46.046;10.760;2022-07-29T13:57:24;95487.09;;;26.11;53.17
63019;BME280;49105;46.046;10.760;2022-07-29T13:59:56;95498.69;;;26.05;53.33
63019;BME280;49105;46.046;10.760;2022-07-29T14:02:21;95504.03;;;25.94;53.64
63019;BME280;49105;46.046;10.760;2022-07-29T14:04:59;95500.81;;;25.81;53.98
63019;BME280;49105;46.046;10.760;2022-07-29T14:10:55;95512.22;;;25.60;55.17
63019;BME280;49105;46.046;10.760;2022-07-29T14:13:27;95507.06;;;25.48;55.57
63019;BME280;49105;46.046;10.760;2022-07-29T14:16:01;95518.16;;;25.36;55.87
63019;BME280;49105;46.046;10.760;2022-07-29T14:18:27;95514.13;;;25.22;56.63
63019;BME280;49105;46.046;10.760;2022-07-29T14:20:53;95514.38;;;25.10;57.52
63019;BME280;49105;46.046;10.760;2022-07-29T14:23:39;95512.22;;;24.96;58.16
63019;BME280;49105;46.046;10.760;2022-07-29T14:26:10;95510.50;;;24.81;58.84
63019;BME280;49105;46.046;10.760;2022-07-29T14:28:54;95514.50;;;24.61;60.53
63019;BME280;49105;46.046;10.760;2022-07-29T14:31:27;95524.50;;;24.34;61.55
63019;BME280;49105;46.046;10.760;2022-07-29T14:33:56;95525.94;;;24.27;61.77
63019;BME280;49105;46.046;10.760;2022-07-29T14:36:31;95519.75;;;24.27;62.23
63019;BME280;49105;46.046;10.760;2022-07-29T14:39:04;95518.69;;;24.09;63.31